sensor_id;sensor_type;location;lat;lon;timestamp;P1;durP1;ratioP1;P2;durP2;ratioP2
4597;SDS011;62772;48.646;8.906;2023-12-28T00:02:04;13.93;;;7.17;;
4597;SDS011;62772;48.646;8.906;2023-12-28T00:07:05;15.63;;;7.30;;
4597;SDS011;62772;48.646;8.906;2023-12-28T00:12:05;9.70;;;6.00;;
4597;SDS011;62772;48.646;8.906;2023-12-28T00:17:06;14.80;;;7.40;;
4597;SDS011;62772;48.646;8.906;2023-12-28T00:22:06;18.47;;;12.00;;
4597;SDS011;62772;48.646;8.906;2023-12-28T00:27:07;13.87;;;6.67;;
4597;SDS011;62772;48.646;8.906;2023-12-28T00:32:07;11.23;;;6.73;;
4597;SDS011;62772;48.646;8.906;2023-12-28T00:37:09;10.67;;;6.00;;
4597;SDS011;62772;48.646;8.906;2023-12-28T00:42:09;9.43;;;5.30;;
4597;SDS011;62772;48.646;8.906;2023-12-28T00:47:10;10.20;;;5.43;;
4597;SDS011;62772;48.646;8.906;2023-12-28T00:52:11;9.07;;;5.00;;
4597;SDS011;62772;48.646;8.906;2023-12-28T00:57:12;10.53;;;4.63;;
4597;SDS011;62772;48.646;8.906;2023-12-28T01:02:12;8.27;;;4.87;;
4597;SDS011;62772;48.646;8.906;2023-12-28T01:07:12;11.53;;;5.30;;
4597;SDS011;62772;48.646;8.906;2023-12-28T01:12:13;8.00;;;4.73;;
4597;SDS011;62772;48.646;8.906;2023-12-28T01:17:13;7.17;;;4.53;;
4597;SDS011;62772;48.646;8.906;2023-12-28T01:22:14;7.00;;;4.77;;
4597;SDS011;62772;48.646;8.906;2023-12-28T01:27:16;7.80;;;4.70;;
4597;SDS011;62772;48.646;8.906;2023-12-28T01:32:17;7.10;;;4.50;;
4597;SDS011;62772;48.646;8.906;2023-12-28T01:37:17;8.60;;;5.07;;
4597;SDS011;62772;48.646;8.906;2023-12-28T01:42:17;7.63;;;4.63;;
4597;SDS011;62772;48.646;8.906;2023-12-28T01:47:18;11.30;;;4.37;;
4597;SDS011;62772;48.646;8.906;2023-12-28T01:52:20;7.93;;;4.83;;
4597;SDS011;62772;48.646;8.906;2023-12-28T01:57:20;8.50;;;4.67;;
4597;SDS011;62772;48.646;8.906;2023-12-28T02:02:22;7.67;;;4.80;;
4597;SDS011;62772;48.646;8.906;2023-12-28T02:07:23;8.13;;;4.93;;
4597;SDS011;62772;48.646;8.906;2023-12-28T02:12:26;8.80;;;5.10;;
4597;SDS011;62772;48.646;8.906;2023-12-28T02:22:38;7.43;;;5.07;;
4597;SDS011;62772;48.646;8.906;2023-12-28T02:27:41;7.93;;;4.60;;
4597;SDS011;62772;48.646;8.906;2023-12-28T02:32:54;8.27;;;4.60;;
4597;SDS011;62772;48.646;8.906;2023-12-28T02:37:55;6.67;;;4.63;;
4597;SDS011;62772;48.646;8.906;2023-12-28T02:42:58;8.43;;;4.60;;
4597;SDS011;62772;48.646;8.906;2023-12-28T02:47:58;7.60;;;4.43;;
4597;SDS011;62772;48.646;8.906;2023-12-28T02:52:59;8.13;;;4.60;;
4597;SDS011;62772;48.646;8.906;2023-12-28T02:57:59;7.57;;;4.07;;
4597;SDS011;62772;48.646;8.906;2023-12-28T03:03:00;8.27;;;3.90;;
4597;SDS011;62772;48.646;8.906;2023-12-28T03:08:02;4.97;;;3.20;;
4597;SDS011;62772;48.646;8.906;2023-12-28T03:13:03;7.90;;;3.70;;
4597;SDS011;62772;48.646;8.906;2023-12-28T03:18:03;6.03;;;3.53;;
4597;SDS011;62772;48.646;8.906;2023-12-28T03:23:04;5.00;;;3.43;;
4597;SDS011;62772;48.646;8.906;2023-12-28T03:28:04;5.97;;;3.30;;
4597;SDS011;62772;48.646;8.906;2023-12-28T03:33:05;5.93;;;3.50;;
4597;SDS011;62772;48.646;8.906;2023-12-28T03:38:05;5.60;;;3.67;;
4597;SDS011;62772;48.646;8.906;2023-12-28T03:43:06;4.70;;;3.40;;
4597;SDS011;62772;48.646;8.906;2023-12-28T03:48:06;4.73;;;3.47;;
4597;SDS011;62772;48.646;8.906;2023-12-28T03:53:07;5.57;;;3.50;;
4597;SDS011;62772;48.646;8.906;2023-12-28T03:58:07;5.93;;;3.10;;
4597;SDS011;62772;48.646;8.906;2023-12-28T04:03:08;6.60;;;3.77;;
4597;SDS011;62772;48.646;8.906;2023-12-28T04:08:08;6.67;;;3.40;;
4597;SDS011;62772;48.646;8.906;2023-12-28T04:13:09;5.37;;;3.30;;
4597;SDS011;62772;48.646;8.906;2023-12-28T04:18:09;5.60;;;3.80;;
4597;SDS011;62772;48.646;8.906;2023-12-28T04:23:10;5.80;;;3.50;;
4597;SDS011;62772;48.646;8.906;2023-12-28T04:28:10;5.07;;;3.27;;
4597;SDS011;62772;48.646;8.906;2023-12-28T04:33:11;5.83;;;3.20;;
4597;SDS011;62772;48.646;8.906;2023-12-28T04:38:11;5.37;;;3.30;;
4597;SDS011;62772;48.646;8.906;2023-12-28T04:43:12;5.20;;;3.60;;
4597;SDS011;62772;48.646;8.906;2023-12-28T04:48:12;5.20;;;3.30;;
4597;SDS011;62772;48.646;8.906;2023-12-28T04:53:13;4.37;;;3.03;;
4597;SDS011;62772;48.646;8.906;2023-12-28T04:58:14;5.57;;;3.40;;
4597;SDS011;62772;48.646;8.906;2023-12-28T05:03:15;5.73;;;3.20;;
4597;SDS011;62772;48.646;8.906;2023-12-28T05:08:15;5.37;;;3.23;;
4597;SDS011;62772;48.646;8.906;2023-12-28T05:13:16;5.13;;;3.43;;
4597;SDS011;62772;48.646;8.906;2023-12-28T05:18:16;7.57;;;3.53;;
4597;SDS011;62772;48.646;8.906;2023-12-28T05:23:17;4.93;;;3.20;;
4597;SDS011;62772;48.646;8.906;2023-12-28T05:28:17;5.33;;;3.33;;
4597;SDS011;62772;48.646;8.906;2023-12-28T05:33:17;4.63;;;2.80;;
4597;SDS011;62772;48.646;8.906;2023-12-28T05:38:18;5.30;;;2.80;;
4597;SDS011;62772;48.646;8.906;2023-12-28T05:43:18;5.93;;;2.73;;
4597;SDS011;62772;48.646;8.906;2023-12-28T05:48:19;5.80;;;2.93;;
4597;SDS011;62772;48.646;8.906;2023-12-28T05:53:19;4.10;;;2.90;;
4597;SDS011;62772;48.646;8.906;2023-12-28T05:58:20;5.03;;;3.00;;
4597;SDS011;62772;48.646;8.906;2023-12-28T06:03:20;5.37;;;3.10;;
4597;SDS011;62772;48.646;8.906;2023-12-28T06:08:21;4.07;;;2.87;;
4597;SDS011;62772;48.646;8.906;2023-12-28T06:13:21;4.13;;;2.73;;
4597;SDS011;62772;48.646;8.906;2023-12-28T06:18:22;4.17;;;2.90;;
4597;SDS011;62772;48.646;8.906;2023-12-28T06:23:22;4.00;;;2.90;;
4597;SDS011;62772;48.646;8.906;2023-12-28T06:28:22;4.53;;;2.90;;
4597;SDS011;62772;48.646;8.906;2023-12-28T06:33:23;6.50;;;3.33;;
4597;SDS011;62772;48.646;8.906;2023-12-28T06:38:24;7.07;;;3.70;;
4597;SDS011;62772;48.646;8.906;2023-12-28T06:43:25;5.97;;;3.40;;
4597;SDS011;62772;48.646;8.906;2023-12-28T06:48:25;6.17;;;3.33;;
4597;SDS011;62772;48.646;8.906;2023-12-28T06:53:26;4.90;;;3.37;;
4597;SDS011;62772;48.646;8.906;2023-12-28T06:58:27;6.07;;;3.27;;
4597;SDS011;62772;48.646;8.906;2023-12-28T07:03:27;9.33;;;3.80;;
4597;SDS011;62772;48.646;8.906;2023-12-28T07:08:30;7.03;;;4.03;;
4597;SDS011;62772;48.646;8.906;2023-12-28T07:13:31;8.53;;;3.83;;
4597;SDS011;62772;48.646;8.906;2023-12-28T07:18:31;5.43;;;3.60;;
4597;SDS011;62772;48.646;8.906;2023-12-28T07:23:32;5.90;;;3.10;;
4597;SDS011;62772;48.646;8.906;2023-12-28T07:28:33;6.10;;;3.80;;
4597;SDS011;62772;48.646;8.906;2023-12-28T07:33:33;5.17;;;3.40;;
4597;SDS011;62772;48.646;8.906;2023-12-28T07:38:34;5.10;;;3.27;;
4597;SDS011;62772;48.646;8.906;2023-12-28T07:43:34;6.83;;;3.30;;
4597;SDS011;62772;48.646;8.906;2023-12-28T07:48:36;6.90;;;3.67;;
4597;SDS011;62772;48.646;8.906;2023-12-28T07:53:36;7.00;;;3.80;;
4597;SDS011;62772;48.646;8.906;2023-12-28T07:58:37;6.57;;;2.83;;
4597;SDS011;62772;48.646;8.906;2023-12-28T08:03:39;5.20;;;3.60;;
4597;SDS011;62772;48.646;8.906;2023-12-28T08:08:39;6.07;;;3.57;;
4597;SDS011;62772;48.646;8.906;2023-12-28T08:13:40;5.10;;;3.20;;
4597;SDS011;62772;48.646;8.906;2023-12-28T08:18:41;5.80;;;3.67;;
4597;SDS011;62772;48.646;8.906;2023-12-28T08:23:41;3.90;;;2.90;;
4597;SDS011;62772;48.646;8.906;2023-12-28T08:28:41;5.10;;;3.17;;
4597;SDS011;62772;48.646;8.906;2023-12-28T08:33:42;5.33;;;3.10;;
4597;SDS011;62772;48.646;8.906;2023-12-28T08:38:43;5.30;;;3.27;;
4597;SDS011;62772;48.646;8.906;2023-12-28T08:43:44;5.43;;;3.60;;
4597;SDS011;62772;48.646;8.906;2023-12-28T08:48:44;10.50;;;4.93;;
4597;SDS011;62772;48.646;8.906;2023-12-28T08:53:45;8.93;;;5.47;;
4597;SDS011;62772;48.646;8.906;2023-12-28T08:58:46;7.10;;;4.83;;
4597;SDS011;62772;48.646;8.906;2023-12-28T09:03:54;7.70;;;3.87;;
4597;SDS011;62772;48.646;8.906;2023-12-28T09:08:55;15.43;;;4.50;;
4597;SDS011;62772;48.646;8.906;2023-12-28T09:13:56;9.90;;;4.97;;
4597;SDS011;62772;48.646;8.906;2023-12-28T09:18:57;9.00;;;5.10;;
4597;SDS011;62772;48.646;8.906;2023-12-28T09:23:57;8.13;;;4.50;;
4597;SDS011;62772;48.646;8.906;2023-12-28T09:28:58;6.33;;;3.80;;
4597;SDS011;62772;48.646;8.906;2023-12-28T09:33:58;6.13;;;3.73;;
4597;SDS011;62772;48.646;8.906;2023-12-28T09:38:59;5.87;;;3.90;;
4597;SDS011;62772;48.646;8.906;2023-12-28T09:44:08;6.30;;;3.80;;
4597;SDS011;62772;48.646;8.906;2023-12-28T09:49:12;7.50;;;4.80;;
4597;SDS011;62772;48.646;8.906;2023-12-28T09:54:13;5.57;;;3.50;;
4597;SDS011;62772;48.646;8.906;2023-12-28T09:59:13;4.77;;;3.10;;
4597;SDS011;62772;48.646;8.906;2023-12-28T10:04:16;13.53;;;6.53;;
4597;SDS011;62772;48.646;8.906;2023-12-28T10:09:17;3.60;;;2.70;;
4597;SDS011;62772;48.646;8.906;2023-12-28T10:14:18;4.40;;;3.10;;
4597;SDS011;62772;48.646;8.906;2023-12-28T10:19:21;4.60;;;2.70;;
4597;SDS011;62772;48.646;8.906;2023-12-28T10:24:23;6.90;;;2.97;;
4597;SDS011;62772;48.646;8.906;2023-12-28T10:29:26;5.20;;;3.67;;
4597;SDS011;62772;48.646;8.906;2023-12-28T10:34:27;6.20;;;3.43;;
4597;SDS011;62772;48.646;8.906;2023-12-28T10:39:28;8.07;;;4.60;;
4597;SDS011;62772;48.646;8.906;2023-12-28T10:44:33;9.90;;;5.63;;
4597;SDS011;62772;48.646;8.906;2023-12-28T10:49:37;8.40;;;5.03;;
4597;SDS011;62772;48.646;8.906;2023-12-28T10:54:45;4.90;;;3.47;;
4597;SDS011;62772;48.646;8.906;2023-12-28T10:59:56;6.20;;;4.03;;
4597;SDS011;62772;48.646;8.906;2023-12-28T11:05:09;7.17;;;3.80;;
4597;SDS011;62772;48.646;8.906;2023-12-28T11:10:09;5.37;;;3.73;;
4597;SDS011;62772;48.646;8.906;2023-12-28T11:15:11;5.90;;;3.70;;
4597;SDS011;62772;48.646;8.906;2023-12-28T11:20:13;7.97;;;4.40;;
4597;SDS011;62772;48.646;8.906;2023-12-28T11:25:15;7.83;;;4.30;;
4597;SDS011;62772;48.646;8.906;2023-12-28T11:30:16;7.27;;;3.50;;
4597;SDS011;62772;48.646;8.906;2023-12-28T11:35:17;6.50;;;4.03;;
4597;SDS011;62772;48.646;8.906;2023-12-28T11:40:17;5.90;;;3.60;;
4597;SDS011;62772;48.646;8.906;2023-12-28T11:45:20;5.40;;;3.70;;
4597;SDS011;62772;48.646;8.906;2023-12-28T11:50:22;5.80;;;3.90;;
4597;SDS011;62772;48.646;8.906;2023-12-28T11:55:22;5.90;;;3.87;;
4597;SDS011;62772;48.646;8.906;2023-12-28T12:00:23;6.80;;;3.90;;
4597;SDS011;62772;48.646;8.906;2023-12-28T12:05:25;5.53;;;3.60;;
4597;SDS011;62772;48.646;8.906;2023-12-28T12:10:27;7.63;;;4.73;;
4597;SDS011;62772;48.646;8.906;2023-12-28T12:15:28;6.33;;;4.20;;
4597;SDS011;62772;48.646;8.906;2023-12-28T12:20:29;6.50;;;4.50;;
4597;SDS011;62772;48.646;8.906;2023-12-28T12:25:30;9.13;;;4.20;;
4597;SDS011;62772;48.646;8.906;2023-12-28T12:30:30;6.80;;;4.43;;
4597;SDS011;62772;48.646;8.906;2023-12-28T12:35:31;6.70;;;3.73;;
4597;SDS011;62772;48.646;8.906;2023-12-28T12:40:31;6.60;;;4.03;;
4597;SDS011;62772;48.646;8.906;2023-12-28T12:45:32;4.70;;;3.43;;
4597;SDS011;62772;48.646;8.906;2023-12-28T12:50:33;5.07;;;3.60;;
4597;SDS011;62772;48.646;8.906;2023-12-28T12:55:33;5.23;;;3.03;;
4597;SDS011;62772;48.646;8.906;2023-12-28T13:00:34;4.40;;;2.77;;
4597;SDS011;62772;48.646;8.906;2023-12-28T13:05:38;5.43;;;3.53;;
4597;SDS011;62772;48.646;8.906;2023-12-28T13:10:39;8.67;;;4.23;;
4597;SDS011;62772;48.646;8.906;2023-12-28T13:15:39;5.50;;;3.77;;
4597;SDS011;62772;48.646;8.906;2023-12-28T13:20:40;6.90;;;4.00;;
4597;SDS011;62772;48.646;8.906;2023-12-28T13:25:42;4.17;;;2.90;;
4597;SDS011;62772;48.646;8.906;2023-12-28T13:30:44;5.47;;;3.53;;
4597;SDS011;62772;48.646;8.906;2023-12-28T13:35:45;6.93;;;4.03;;
4597;SDS011;62772;48.646;8.906;2023-12-28T13:40:45;5.77;;;3.50;;
4597;SDS011;62772;48.646;8.906;2023-12-28T13:45:45;7.53;;;3.77;;
4597;SDS011;62772;48.646;8.906;2023-12-28T13:50:47;6.77;;;4.30;;
4597;SDS011;62772;48.646;8.906;2023-12-28T13:55:47;8.57;;;5.00;;
4597;SDS011;62772;48.646;8.906;2023-12-28T14:00:48;7.20;;;4.50;;
4597;SDS011;62772;48.646;8.906;2023-12-28T14:05:48;9.27;;;4.87;;
4597;SDS011;62772;48.646;8.906;2023-12-28T14:10:49;6.70;;;4.03;;
4597;SDS011;62772;48.646;8.906;2023-12-28T14:15:49;5.80;;;3.90;;
4597;SDS011;62772;48.646;8.906;2023-12-28T14:20:50;7.93;;;4.33;;
4597;SDS011;62772;48.646;8.906;2023-12-28T14:25:50;9.77;;;5.47;;
4597;SDS011;62772;48.646;8.906;2023-12-28T14:30:53;11.43;;;5.50;;
4597;SDS011;62772;48.646;8.906;2023-12-28T14:35:54;7.80;;;4.23;;
4597;SDS011;62772;48.646;8.906;2023-12-28T14:40:55;11.37;;;5.83;;
4597;SDS011;62772;48.646;8.906;2023-12-28T14:45:59;7.23;;;4.67;;
4597;SDS011;62772;48.646;8.906;2023-12-28T14:51:00;8.80;;;5.27;;
4597;SDS011;62772;48.646;8.906;2023-12-28T14:56:01;14.43;;;5.90;;
4597;SDS011;62772;48.646;8.906;2023-12-28T15:01:01;11.67;;;6.17;;
4597;SDS011;62772;48.646;8.906;2023-12-28T15:06:02;11.47;;;6.50;;
4597;SDS011;62772;48.646;8.906;2023-12-28T15:11:03;11.57;;;5.70;;
4597;SDS011;62772;48.646;8.906;2023-12-28T15:16:04;8.83;;;5.30;;
4597;SDS011;62772;48.646;8.906;2023-12-28T15:21:05;7.10;;;4.80;;
4597;SDS011;62772;48.646;8.906;2023-12-28T15:26:06;9.83;;;5.83;;
4597;SDS011;62772;48.646;8.906;2023-12-28T15:31:07;7.40;;;4.70;;
4597;SDS011;62772;48.646;8.906;2023-12-28T15:36:08;7.33;;;4.97;;
4597;SDS011;62772;48.646;8.906;2023-12-28T15:41:09;8.80;;;5.30;;
4597;SDS011;62772;48.646;8.906;2023-12-28T15:46:10;10.30;;;5.60;;
4597;SDS011;62772;48.646;8.906;2023-12-28T15:51:10;12.30;;;7.43;;
4597;SDS011;62772;48.646;8.906;2023-12-28T15:56:11;9.50;;;6.87;;
4597;SDS011;62772;48.646;8.906;2023-12-28T16:01:12;10.50;;;7.10;;
4597;SDS011;62772;48.646;8.906;2023-12-28T16:06:13;13.57;;;6.53;;
4597;SDS011;62772;48.646;8.906;2023-12-28T16:11:13;9.30;;;6.10;;
4597;SDS011;62772;48.646;8.906;2023-12-28T16:16:14;7.90;;;5.23;;
4597;SDS011;62772;48.646;8.906;2023-12-28T16:21:14;8.80;;;5.57;;
4597;SDS011;62772;48.646;8.906;2023-12-28T16:26:15;10.23;;;6.13;;
4597;SDS011;62772;48.646;8.906;2023-12-28T16:31:18;8.30;;;6.20;;
4597;SDS011;62772;48.646;8.906;2023-12-28T16:36:19;13.93;;;8.10;;
4597;SDS011;62772;48.646;8.906;2023-12-28T16:41:20;7.17;;;4.90;;
4597;SDS011;62772;48.646;8.906;2023-12-28T16:46:20;10.90;;;6.17;;
4597;SDS011;62772;48.646;8.906;2023-12-28T16:51:21;10.80;;;7.50;;
4597;SDS011;62772;48.646;8.906;2023-12-28T16:56:21;9.87;;;7.00;;
4597;SDS011;62772;48.646;8.906;2023-12-28T17:01:21;12.50;;;7.03;;
4597;SDS011;62772;48.646;8.906;2023-12-28T17:06:22;8.47;;;5.90;;
4597;SDS011;62772;48.646;8.906;2023-12-28T17:11:23;10.37;;;6.57;;
4597;SDS011;62772;48.646;8.906;2023-12-28T17:16:23;12.30;;;7.63;;
4597;SDS011;62772;48.646;8.906;2023-12-28T17:21:24;11.57;;;7.90;;
4597;SDS011;62772;48.646;8.906;2023-12-28T17:26:32;11.00;;;7.30;;
4597;SDS011;62772;48.646;8.906;2023-12-28T17:31:35;12.27;;;7.90;;
4597;SDS011;62772;48.646;8.906;2023-12-28T17:36:37;12.63;;;8.20;;
4597;SDS011;62772;48.646;8.906;2023-12-28T17:41:38;10.57;;;7.40;;
4597;SDS011;62772;48.646;8.906;2023-12-28T17:46:52;11.63;;;7.23;;
4597;SDS011;62772;48.646;8.906;2023-12-28T17:51:57;10.40;;;6.70;;
4597;SDS011;62772;48.646;8.906;2023-12-28T17:56:58;10.37;;;7.40;;
4597;SDS011;62772;48.646;8.906;2023-12-28T18:01:59;12.00;;;6.93;;
4597;SDS011;62772;48.646;8.906;2023-12-28T18:06:59;10.97;;;7.07;;
4597;SDS011;62772;48.646;8.906;2023-12-28T18:12:00;10.83;;;7.10;;
4597;SDS011;62772;48.646;8.906;2023-12-28T18:17:00;11.80;;;7.63;;
4597;SDS011;62772;48.646;8.906;2023-12-28T18:22:01;11.13;;;6.90;;
4597;SDS011;62772;48.646;8.906;2023-12-28T18:27:01;11.40;;;6.80;;
4597;SDS011;62772;48.646;8.906;2023-12-28T18:32:02;11.17;;;7.37;;
4597;SDS011;62772;48.646;8.906;2023-12-28T18:37:02;8.80;;;6.27;;
4597;SDS011;62772;48.646;8.906;2023-12-28T18:42:06;9.33;;;6.77;;
4597;SDS011;62772;48.646;8.906;2023-12-28T18:47:07;15.30;;;9.33;;
4597;SDS011;62772;48.646;8.906;2023-12-28T18:52:08;11.63;;;7.47;;
4597;SDS011;62772;48.646;8.906;2023-12-28T18:57:08;8.90;;;6.30;;
4597;SDS011;62772;48.646;8.906;2023-12-28T19:02:09;10.80;;;6.70;;
4597;SDS011;62772;48.646;8.906;2023-12-28T19:07:09;9.77;;;6.57;;
4597;SDS011;62772;48.646;8.906;2023-12-28T19:12:10;10.80;;;6.70;;
4597;SDS011;62772;48.646;8.906;2023-12-28T19:17:11;11.20;;;6.70;;
4597;SDS011;62772;48.646;8.906;2023-12-28T19:22:11;9.63;;;6.30;;
4597;SDS011;62772;48.646;8.906;2023-12-28T19:27:13;9.87;;;6.80;;
4597;SDS011;62772;48.646;8.906;2023-12-28T19:32:16;10.10;;;7.13;;
4597;SDS011;62772;48.646;8.906;2023-12-28T19:37:16;9.50;;;6.40;;
4597;SDS011;62772;48.646;8.906;2023-12-28T19:42:17;10.90;;;7.33;;
4597;SDS011;62772;48.646;8.906;2023-12-28T19:47:17;9.70;;;6.97;;
4597;SDS011;62772;48.646;8.906;2023-12-28T19:52:17;10.27;;;6.97;;
4597;SDS011;62772;48.646;8.906;2023-12-28T19:57:20;9.43;;;6.07;;
4597;SDS011;62772;48.646;8.906;2023-12-28T20:02:21;9.90;;;6.20;;
4597;SDS011;62772;48.646;8.906;2023-12-28T20:07:25;8.63;;;5.50;;
4597;SDS011;62772;48.646;8.906;2023-12-28T20:12:25;8.47;;;5.10;;
4597;SDS011;62772;48.646;8.906;2023-12-28T20:17:26;6.90;;;4.87;;
4597;SDS011;62772;48.646;8.906;2023-12-28T20:22:26;6.80;;;4.60;;
4597;SDS011;62772;48.646;8.906;2023-12-28T20:27:27;10.23;;;5.70;;
4597;SDS011;62772;48.646;8.906;2023-12-28T20:32:27;10.40;;;5.87;;
4597;SDS011;62772;48.646;8.906;2023-12-28T20:37:28;8.07;;;5.40;;
4597;SDS011;62772;48.646;8.906;2023-12-28T20:42:28;8.97;;;5.60;;
4597;SDS011;62772;48.646;8.906;2023-12-28T20:47:29;9.23;;;5.97;;
4597;SDS011;62772;48.646;8.906;2023-12-28T20:52:30;6.03;;;4.97;;
4597;SDS011;62772;48.646;8.906;2023-12-28T20:57:31;11.50;;;6.37;;
4597;SDS011;62772;48.646;8.906;2023-12-28T21:02:31;8.80;;;5.57;;
4597;SDS011;62772;48.646;8.906;2023-12-28T21:07:32;7.60;;;5.43;;
4597;SDS011;62772;48.646;8.906;2023-12-28T21:12:34;7.60;;;5.83;;
4597;SDS011;62772;48.646;8.906;2023-12-28T21:17:37;8.37;;;5.23;;
4597;SDS011;62772;48.646;8.906;2023-12-28T21:22:37;7.50;;;5.63;;
4597;SDS011;62772;48.646;8.906;2023-12-28T21:27:38;8.10;;;4.93;;
4597;SDS011;62772;48.646;8.906;2023-12-28T21:32:39;6.60;;;4.40;;
4597;SDS011;62772;48.646;8.906;2023-12-28T21:37:40;9.50;;;5.67;;
4597;SDS011;62772;48.646;8.906;2023-12-28T21:42:40;6.77;;;4.57;;
4597;SDS011;62772;48.646;8.906;2023-12-28T21:47:41;7.40;;;4.90;;
4597;SDS011;62772;48.646;8.906;2023-12-28T21:52:42;8.97;;;5.40;;
4597;SDS011;62772;48.646;8.906;2023-12-28T21:57:44;8.00;;;5.33;;
4597;SDS011;62772;48.646;8.906;2023-12-28T22:02:45;7.60;;;5.60;;
4597;SDS011;62772;48.646;8.906;2023-12-28T22:07:45;9.33;;;5.67;;
4597;SDS011;62772;48.646;8.906;2023-12-28T22:12:46;11.17;;;7.37;;
4597;SDS011;62772;48.646;8.906;2023-12-28T22:17:46;9.93;;;6.70;;
4597;SDS011;62772;48.646;8.906;2023-12-28T22:22:47;8.53;;;6.10;;
4597;SDS011;62772;48.646;8.906;2023-12-28T22:27:48;8.13;;;6.00;;
4597;SDS011;62772;48.646;8.906;2023-12-28T22:32:49;8.10;;;6.00;;
4597;SDS011;62772;48.646;8.906;2023-12-28T22:37:49;7.83;;;5.40;;
4597;SDS011;62772;48.646;8.906;2023-12-28T22:42:50;6.37;;;4.50;;
4597;SDS011;62772;48.646;8.906;2023-12-28T22:47:50;9.47;;;5.70;;
4597;SDS011;62772;48.646;8.906;2023-12-28T22:52:51;7.17;;;4.80;;
4597;SDS011;62772;48.646;8.906;2023-12-28T22:57:51;6.60;;;4.80;;
4597;SDS011;62772;48.646;8.906;2023-12-28T23:02:54;7.83;;;5.43;;
4597;SDS011;62772;48.646;8.906;2023-12-28T23:07:55;8.20;;;5.10;;
4597;SDS011;62772;48.646;8.906;2023-12-28T23:12:56;9.77;;;6.10;;
4597;SDS011;62772;48.646;8.906;2023-12-28T23:17:58;10.60;;;7.20;;
4597;SDS011;62772;48.646;8.906;2023-12-28T23:22:59;7.70;;;5.17;;
4597;SDS011;62772;48.646;8.906;2023-12-28T23:28:00;7.53;;;5.00;;
4597;SDS011;62772;48.646;8.906;2023-12-28T23:33:01;7.53;;;4.83;;
4597;SDS011;62772;48.646;8.906;2023-12-28T23:38:01;10.30;;;5.40;;
4597;SDS011;62772;48.646;8.906;2023-12-28T23:43:01;9.20;;;5.23;;
4597;SDS011;62772;48.646;8.906;2023-12-28T23:48:05;8.30;;;5.30;;
4597;SDS011;62772;48.646;8.906;2023-12-28T23:53:06;8.20;;;4.90;;
4597;SDS011;62772;48.646;8.906;2023-12-28T23:58:06;6.77;;;4.93;;
